createdAt,value
2019-06-08T00:02:22.971Z,17.40
2019-06-08T00:04:52.954Z,18.23
2019-06-08T00:07:24.385Z,19.07
2019-06-08T00:09:54.069Z,19.40
2019-06-08T00:12:23.776Z,18.40
2019-06-08T00:14:53.502Z,18.63
2019-06-08T00:17:34.573Z,18.67
2019-06-08T00:19:54.974Z,19.50
2019-06-08T00:22:26.305Z,18.33
2019-06-08T00:24:55.935Z,18.83
2019-06-08T00:27:25.624Z,19.07
2019-06-08T00:29:55.336Z,21.13
2019-06-08T00:32:25.042Z,19.60
2019-06-08T00:34:54.749Z,18.60
2019-06-08T00:37:25.003Z,19.43
2019-06-08T00:39:55.284Z,19.97
2019-06-08T00:42:25.520Z,19.57
2019-06-08T00:44:55.398Z,20.43
2019-06-08T00:47:25.068Z,20.30
2019-06-08T00:49:54.785Z,19.73
2019-06-08T00:52:25.584Z,20.93
2019-06-08T00:54:55.493Z,20.33
2019-06-08T00:57:26.051Z,19.30
2019-06-08T00:59:55.929Z,20.03
2019-06-08T01:02:26.828Z,20.53
2019-06-08T01:04:56.687Z,19.30
2019-06-08T01:07:26.395Z,20.27
2019-06-08T01:09:56.042Z,20.70
2019-06-08T01:12:37.991Z,21.63
2019-06-08T01:15:09.243Z,23.00
2019-06-08T01:17:39.049Z,23.17
2019-06-08T01:20:09.364Z,21.70
2019-06-08T01:22:39.099Z,21.93
2019-06-08T01:25:09.041Z,21.37
2019-06-08T01:27:38.813Z,21.13
2019-06-08T01:30:09.410Z,21.00
2019-06-08T01:32:39.100Z,22.33
2019-06-08T01:35:09.416Z,22.13
2019-06-08T01:37:39.217Z,22.17
2019-06-08T01:40:09.212Z,23.07
2019-06-08T01:42:38.933Z,23.60
2019-06-08T01:45:10.019Z,23.90
2019-06-08T01:47:39.771Z,24.20
2019-06-08T01:50:09.471Z,23.37
2019-06-08T01:52:39.186Z,23.37
2019-06-08T01:55:08.949Z,23.17
2019-06-08T01:57:38.720Z,23.43
2019-06-08T02:00:29.363Z,24.40
2019-06-08T02:02:40.532Z,24.77
2019-06-08T02:05:10.371Z,25.23
2019-06-08T02:07:40.093Z,23.17
2019-06-08T02:10:11.055Z,25.13
2019-06-08T02:12:40.777Z,25.03
2019-06-08T02:15:11.073Z,26.33
2019-06-08T02:17:40.791Z,23.77
2019-06-08T02:20:11.096Z,25.53
2019-06-08T02:22:40.884Z,25.43
2019-06-08T02:25:10.900Z,26.67
2019-06-08T02:27:40.663Z,25.63
2019-06-08T02:30:12.605Z,24.90
2019-06-08T02:32:42.330Z,24.93
2019-06-08T02:35:12.456Z,24.40
2019-06-08T02:37:42.201Z,24.93
2019-06-08T02:40:12.139Z,24.83
2019-06-08T02:42:41.854Z,23.67
2019-06-08T02:45:12.149Z,25.63
2019-06-08T02:47:42.037Z,26.20
2019-06-08T02:50:12.563Z,24.13
2019-06-08T02:52:44.457Z,24.10
2019-06-08T02:55:14.268Z,22.73
2019-06-08T02:57:44.909Z,22.67
2019-06-08T03:00:15.735Z,22.60
2019-06-08T03:02:46.544Z,21.97
2019-06-08T03:05:16.604Z,22.90
2019-06-08T03:07:48.625Z,22.33
2019-06-08T03:10:18.533Z,21.40
2019-06-08T03:12:50.844Z,21.77
2019-06-08T03:15:33.741Z,21.97
2019-06-08T03:18:01.510Z,22.23
2019-06-08T03:20:31.616Z,21.53
2019-06-08T03:23:01.864Z,22.10
2019-06-08T03:25:33.255Z,20.17
2019-06-08T03:28:02.915Z,21.20
2019-06-08T03:30:37.172Z,20.67
2019-06-08T03:33:04.059Z,20.23
2019-06-08T03:35:36.015Z,20.30
2019-06-08T03:38:05.228Z,20.30
2019-06-08T03:40:35.897Z,19.50
2019-06-08T03:43:10.490Z,21.07
2019-06-08T03:45:40.769Z,19.43
2019-06-08T03:48:10.980Z,20.63
2019-06-08T03:50:42.065Z,20.23
2019-06-08T03:53:12.196Z,19.33
2019-06-08T03:55:43.059Z,19.30
2019-06-08T03:58:13.389Z,20.03
2019-06-08T04:00:44.417Z,19.47
2019-06-08T04:03:14.208Z,19.70
2019-06-08T04:05:44.905Z,18.70
2019-06-08T04:08:15.322Z,17.43
2019-06-08T04:10:46.683Z,18.50
2019-06-08T04:13:16.480Z,18.98
2019-06-08T04:15:46.889Z,17.83
2019-06-08T04:18:17.109Z,16.37
2019-06-08T04:20:48.820Z,16.02
2019-06-08T04:23:18.402Z,16.45
2019-06-08T04:25:48.154Z,16.05
2019-06-08T04:28:17.868Z,15.18
2019-06-08T04:30:49.913Z,13.72
2019-06-08T04:33:18.996Z,13.80
2019-06-08T04:35:50.611Z,14.10
2019-06-08T04:38:20.210Z,13.13
2019-06-08T04:40:50.190Z,14.10
2019-06-08T04:43:20.113Z,13.30
2019-06-08T04:45:50.024Z,14.15
2019-06-08T04:48:19.790Z,14.68
2019-06-08T04:50:49.805Z,15.93
2019-06-08T04:53:19.780Z,16.85
2019-06-08T04:55:49.501Z,17.35
2019-06-08T04:58:19.186Z,17.10
2019-06-08T05:00:50.813Z,17.60
2019-06-08T05:03:20.382Z,17.00
2019-06-08T05:05:50.291Z,16.32
2019-06-08T05:08:20.907Z,17.35
2019-06-08T05:10:50.574Z,17.55
2019-06-08T05:13:20.315Z,17.30
2019-06-08T05:15:50.413Z,18.67
2019-06-08T05:18:20.337Z,17.35
2019-06-08T05:20:51.445Z,17.95
2019-06-08T05:23:21.391Z,18.25
2019-06-08T05:25:51.070Z,16.35
2019-06-08T05:28:20.787Z,17.80
2019-06-08T05:30:50.543Z,16.75
2019-06-08T05:33:20.241Z,17.45
2019-06-08T05:35:49.986Z,16.35
2019-06-08T05:38:19.702Z,18.07
2019-06-08T05:40:52.702Z,16.27
2019-06-08T05:43:22.579Z,16.82
2019-06-08T05:45:52.271Z,16.67
2019-06-08T05:48:21.985Z,15.38
2019-06-08T05:51:03.002Z,16.40
2019-06-08T05:53:23.700Z,14.90
2019-06-08T05:55:53.399Z,15.28
2019-06-08T05:58:23.104Z,15.03
2019-06-08T06:00:52.812Z,14.90
2019-06-08T06:03:22.572Z,15.48
2019-06-08T06:05:52.350Z,14.65
2019-06-08T06:08:22.030Z,15.15
2019-06-08T06:10:51.766Z,14.55
2019-06-08T06:13:21.666Z,13.93
2019-06-08T06:15:51.823Z,14.90
2019-06-08T06:18:21.801Z,15.35
2019-06-08T06:20:51.794Z,14.73
2019-06-08T06:23:21.995Z,15.13
2019-06-08T06:25:51.872Z,14.23
2019-06-08T06:28:21.741Z,13.35
2019-06-08T06:30:52.250Z,12.95
2019-06-08T06:33:22.773Z,13.62
2019-06-08T06:35:53.201Z,13.85
2019-06-08T06:38:23.022Z,13.93
2019-06-08T06:40:53.210Z,13.80
2019-06-08T06:43:23.149Z,14.38
2019-06-08T06:45:52.957Z,14.68
2019-06-08T06:48:23.598Z,14.43
2019-06-08T06:50:53.578Z,13.75
2019-06-08T06:53:23.279Z,13.03
2019-06-08T06:55:53.411Z,12.55
2019-06-08T06:58:23.329Z,12.47
2019-06-08T07:00:53.785Z,12.70
2019-06-08T07:03:23.868Z,13.50
2019-06-08T07:05:54.179Z,13.93
2019-06-08T07:08:24.270Z,12.13
2019-06-08T07:10:55.055Z,13.20
2019-06-08T07:13:25.057Z,12.53
2019-06-08T07:15:58.015Z,13.13
2019-06-08T07:18:26.216Z,12.50
2019-06-08T07:20:56.024Z,12.60
2019-06-08T07:23:25.772Z,13.28
2019-06-08T07:25:55.563Z,12.33
2019-06-08T07:28:25.350Z,13.50
2019-06-08T07:30:55.116Z,14.15
2019-06-08T07:33:24.818Z,13.28
2019-06-08T07:35:55.344Z,12.82
2019-06-08T07:38:25.255Z,12.95
2019-06-08T07:40:58.588Z,12.47
2019-06-08T07:43:26.356Z,12.00
2019-06-08T07:45:56.301Z,13.75
2019-06-08T07:48:26.112Z,14.05
2019-06-08T07:50:56.388Z,13.65
2019-06-08T07:53:26.650Z,13.15
2019-06-08T07:55:56.462Z,13.75
2019-06-08T07:58:26.235Z,13.32
2019-06-08T08:01:03.650Z,13.22
2019-06-08T08:03:27.401Z,13.13
2019-06-08T08:05:58.510Z,11.93
2019-06-08T08:08:28.402Z,11.70
2019-06-08T08:10:58.713Z,11.45
2019-06-08T08:13:29.484Z,11.63
2019-06-08T08:16:00.702Z,11.95
2019-06-08T08:18:30.620Z,10.80
2019-06-08T08:21:09.033Z,11.55
2019-06-08T08:23:31.786Z,10.82
2019-06-08T08:26:01.959Z,10.53
2019-06-08T08:28:31.786Z,10.18
2019-06-08T08:31:01.986Z,9.88
2019-06-08T08:33:31.923Z,10.60
2019-06-08T08:36:02.036Z,9.55
2019-06-08T08:38:31.900Z,10.10
2019-06-08T08:41:07.379Z,9.98
2019-06-08T08:43:32.981Z,11.00
2019-06-08T08:46:02.740Z,10.65
2019-06-08T08:48:32.616Z,10.70
2019-06-08T08:51:03.678Z,10.05
2019-06-08T08:53:33.744Z,9.83
2019-06-08T08:56:03.433Z,9.95
2019-06-08T08:58:33.190Z,10.40
2019-06-08T09:01:03.780Z,10.88
2019-06-08T09:03:33.985Z,9.98
2019-06-08T09:06:04.208Z,10.45
2019-06-08T09:08:34.580Z,8.78
2019-06-08T09:11:04.341Z,9.08
2019-06-08T09:13:34.094Z,9.55
2019-06-08T09:16:04.404Z,9.03
2019-06-08T09:18:34.643Z,10.15
2019-06-08T09:21:04.543Z,11.53
2019-06-08T09:23:34.356Z,11.15
2019-06-08T09:26:11.651Z,11.05
2019-06-08T09:28:35.560Z,11.50
2019-06-08T09:31:05.347Z,10.58
2019-06-08T09:33:35.098Z,11.30
2019-06-08T09:36:05.049Z,10.95
2019-06-08T09:38:35.678Z,11.00
2019-06-08T09:41:08.749Z,11.03
2019-06-08T09:43:38.798Z,10.03
2019-06-08T09:46:09.456Z,10.00
2019-06-08T09:48:40.576Z,11.22
2019-06-08T09:51:10.332Z,11.10
2019-06-08T09:53:41.588Z,9.78
2019-06-08T09:56:11.682Z,9.00
2019-06-08T09:58:41.412Z,9.53
2019-06-08T10:01:12.265Z,10.93
2019-06-08T10:03:42.254Z,9.78
2019-06-08T10:06:12.739Z,9.75
2019-06-08T10:08:42.961Z,9.80
2019-06-08T10:11:12.713Z,9.30
2019-06-08T10:13:43.495Z,9.18
2019-06-08T10:16:13.930Z,9.03
2019-06-08T10:18:43.788Z,9.25
2019-06-08T10:21:13.594Z,8.33
2019-06-08T10:23:43.645Z,8.38
2019-06-08T10:26:13.334Z,7.95
2019-06-08T10:28:43.199Z,9.05
2019-06-08T10:31:13.011Z,9.63
2019-06-08T10:33:42.817Z,9.90
2019-06-08T10:36:13.093Z,9.38
2019-06-08T10:38:43.258Z,9.90
2019-06-08T10:41:18.959Z,9.40
2019-06-08T10:43:44.773Z,9.88
2019-06-08T10:46:17.371Z,10.20
2019-06-08T10:48:48.451Z,10.18
2019-06-08T10:51:18.399Z,9.83
2019-06-08T10:53:52.670Z,10.23
2019-06-08T10:56:21.549Z,9.75
2019-06-08T10:58:51.419Z,10.55
2019-06-08T11:01:22.562Z,10.38
2019-06-08T11:03:52.361Z,9.88
2019-06-08T11:06:22.100Z,10.63
2019-06-08T11:08:51.815Z,9.50
2019-06-08T11:11:21.701Z,9.63
2019-06-08T11:13:51.397Z,9.43
2019-06-08T11:16:21.120Z,9.88
2019-06-08T11:18:51.162Z,10.30
2019-06-08T11:21:21.188Z,9.43
2019-06-08T11:24:06.114Z,11.80
2019-06-08T11:26:30.327Z,11.63
2019-06-08T11:29:01.558Z,9.78
2019-06-08T11:31:32.299Z,10.48
2019-06-08T11:34:12.739Z,9.88
2019-06-08T11:36:42.465Z,10.50
2019-06-08T11:39:12.833Z,11.05
2019-06-08T11:41:48.365Z,11.35
2019-06-08T11:44:18.164Z,11.10
2019-06-08T11:46:48.312Z,10.48
2019-06-08T11:49:18.696Z,11.60
2019-06-08T11:51:48.780Z,10.43
2019-06-08T11:54:34.492Z,11.35
2019-06-08T11:57:02.989Z,9.88
2019-06-08T11:59:43.394Z,9.70
2019-06-08T12:02:20.019Z,10.00
2019-06-08T12:04:57.285Z,8.98
2019-06-08T12:07:33.262Z,8.73
2019-06-08T12:10:12.508Z,9.48
2019-06-08T12:12:48.673Z,9.10
2019-06-08T12:15:24.544Z,9.45
2019-06-08T12:18:01.528Z,9.13
2019-06-08T12:20:37.672Z,9.65
2019-06-08T12:23:14.142Z,9.15
2019-06-08T12:25:43.958Z,9.08
2019-06-08T12:28:14.728Z,8.60
2019-06-08T12:30:44.452Z,8.73
2019-06-08T12:33:15.629Z,8.58
2019-06-08T12:35:47.599Z,8.83
2019-06-08T12:38:19.069Z,8.80
2019-06-08T12:40:54.944Z,10.13
2019-06-08T12:43:30.087Z,8.88
2019-06-08T12:46:08.245Z,9.43
2019-06-08T12:48:44.427Z,8.20
2019-06-08T12:51:21.325Z,8.15
2019-06-08T12:53:50.485Z,7.70
2019-06-08T12:56:23.945Z,7.47
2019-06-08T12:58:51.668Z,7.37
2019-06-08T13:01:23.264Z,7.20
2019-06-08T13:03:53.015Z,7.70
2019-06-08T13:06:28.345Z,6.72
2019-06-08T13:09:03.449Z,7.45
2019-06-08T13:11:39.878Z,6.80
2019-06-08T13:14:14.812Z,6.80
2019-06-08T13:16:53.047Z,6.70
2019-06-08T13:19:27.641Z,8.28
2019-06-08T13:21:58.278Z,7.15
2019-06-08T13:24:28.568Z,8.08
2019-06-08T13:26:58.319Z,6.97
2019-06-08T13:29:28.167Z,7.42
2019-06-08T13:31:58.674Z,8.03
2019-06-08T13:34:29.284Z,7.00
2019-06-08T13:36:59.016Z,6.75
2019-06-08T13:39:28.878Z,7.62
2019-06-08T13:41:58.602Z,7.40
2019-06-08T13:44:28.368Z,7.37
2019-06-08T13:46:58.047Z,6.72
2019-06-08T13:49:30.837Z,8.03
2019-06-08T13:51:59.716Z,7.60
2019-06-08T13:54:31.349Z,7.55
2019-06-08T13:57:00.905Z,8.20
2019-06-08T13:59:31.023Z,8.53
2019-06-08T14:02:01.579Z,8.28
2019-06-08T14:04:33.308Z,8.10
2019-06-08T14:07:03.086Z,7.30
2019-06-08T14:09:32.879Z,7.45
2019-06-08T14:12:02.650Z,7.53
2019-06-08T14:14:33.771Z,7.95
2019-06-08T14:17:03.713Z,8.48
2019-06-08T14:19:33.468Z,9.00
2019-06-08T14:22:03.208Z,9.00
2019-06-08T14:24:34.737Z,9.38
2019-06-08T14:27:09.905Z,10.18
2019-06-08T14:29:45.214Z,9.45
2019-06-08T14:32:22.360Z,9.95
2019-06-08T14:34:58.327Z,10.35
2019-06-08T14:37:38.085Z,10.65
2019-06-08T14:40:13.168Z,9.73
2019-06-08T14:42:48.543Z,8.88
2019-06-08T14:45:28.962Z,9.63
2019-06-08T14:48:03.425Z,9.10
2019-06-08T14:50:40.841Z,9.38
2019-06-08T14:53:19.730Z,9.63
2019-06-08T14:56:05.619Z,9.60
2019-06-08T14:58:35.189Z,9.48
2019-06-08T15:01:11.516Z,9.25
2019-06-08T15:03:48.216Z,9.48
2019-06-08T15:06:19.329Z,9.43
2019-06-08T15:08:50.378Z,10.40
2019-06-08T15:11:32.375Z,9.83
2019-06-08T15:14:04.431Z,10.30
2019-06-08T15:16:42.810Z,10.78
2019-06-08T15:19:18.406Z,10.30
2019-06-08T15:21:53.850Z,10.32
2019-06-08T15:24:31.332Z,11.33
2019-06-08T15:27:07.847Z,12.03
2019-06-08T15:29:43.402Z,10.58
2019-06-08T15:32:19.310Z,10.70
2019-06-08T15:34:52.037Z,11.48
2019-06-08T15:37:21.769Z,11.75
2019-06-08T15:39:52.745Z,11.45
2019-06-08T15:42:22.448Z,11.88
2019-06-08T15:44:52.303Z,11.85
2019-06-08T15:47:22.160Z,12.58
2019-06-08T15:49:59.821Z,12.05
2019-06-08T15:52:29.554Z,12.10
2019-06-08T15:55:01.357Z,11.73
2019-06-08T15:57:33.092Z,10.78
2019-06-08T16:00:01.362Z,11.40
2019-06-08T16:02:31.641Z,11.50
2019-06-08T16:05:01.745Z,11.12
2019-06-08T16:07:32.816Z,12.23
2019-06-08T16:10:02.933Z,11.63
2019-06-08T16:12:33.285Z,12.90
2019-06-08T16:15:03.552Z,12.73
2019-06-08T16:17:33.611Z,13.65
2019-06-08T16:20:03.475Z,14.53
2019-06-08T16:22:33.867Z,14.00
2019-06-08T16:25:04.136Z,14.00
2019-06-08T16:27:33.979Z,12.95
2019-06-08T16:30:09.094Z,15.20
2019-06-08T16:32:35.455Z,14.47
2019-06-08T16:35:06.063Z,14.90
2019-06-08T16:37:35.819Z,15.15
2019-06-08T16:40:05.787Z,13.95
2019-06-08T16:42:36.579Z,15.65
2019-06-08T16:45:07.701Z,15.68
2019-06-08T16:47:37.560Z,17.55
2019-06-08T16:50:07.372Z,15.75
2019-06-08T16:52:37.125Z,14.53
2019-06-08T16:55:07.111Z,17.07
2019-06-08T16:57:39.512Z,17.15
2019-06-08T17:02:41.368Z,17.20
2019-06-08T17:05:11.314Z,16.25
2019-06-08T17:07:41.028Z,17.15
2019-06-08T17:10:11.013Z,17.70
2019-06-08T17:12:43.117Z,18.98
2019-06-08T17:15:13.234Z,17.57
2019-06-08T17:17:45.200Z,16.05
2019-06-08T17:20:16.153Z,15.98
2019-06-08T17:22:49.262Z,15.38
2019-06-08T17:25:19.340Z,14.53
2019-06-08T17:27:49.101Z,14.43
2019-06-08T17:30:18.939Z,13.60
2019-06-08T17:32:48.708Z,12.65
2019-06-08T17:35:18.461Z,12.93
2019-06-08T17:37:49.223Z,13.35
2019-06-08T17:40:19.484Z,12.78
2019-06-08T17:42:49.660Z,12.75
2019-06-08T17:45:19.735Z,12.00
2019-06-08T17:47:49.520Z,12.05
2019-06-08T17:50:19.581Z,11.93
2019-06-08T17:52:49.295Z,11.55
2019-06-08T17:55:20.394Z,11.33
2019-06-08T17:57:53.514Z,11.90
2019-06-08T18:00:22.242Z,12.40
2019-06-08T18:02:51.996Z,11.60
2019-06-08T18:05:21.786Z,12.25
2019-06-08T18:07:51.552Z,12.05
2019-06-08T18:10:21.299Z,11.68
2019-06-08T18:12:51.053Z,11.57
2019-06-08T18:15:20.881Z,11.55
2019-06-08T18:17:50.632Z,11.78
2019-06-08T18:20:21.603Z,12.13
2019-06-08T18:22:51.527Z,11.73
2019-06-08T18:25:22.707Z,11.80
2019-06-08T18:28:06.485Z,11.90
2019-06-08T18:30:27.656Z,12.10
2019-06-08T18:32:58.045Z,11.60
2019-06-08T18:35:28.050Z,12.30
2019-06-08T18:37:57.974Z,12.10
2019-06-08T18:40:28.527Z,11.57
2019-06-08T18:42:59.010Z,12.20
2019-06-08T18:45:30.251Z,12.18
2019-06-08T18:48:00.104Z,11.55
2019-06-08T18:50:29.802Z,12.33
2019-06-08T18:52:59.494Z,11.90
2019-06-08T18:55:29.286Z,12.70
2019-06-08T18:57:59.036Z,11.48
2019-06-08T19:00:40.004Z,11.35
2019-06-08T19:03:09.580Z,11.45
2019-06-08T19:05:42.562Z,10.60
2019-06-08T19:08:12.530Z,10.68
2019-06-08T19:10:42.792Z,9.57
2019-06-08T19:13:13.681Z,9.10
2019-06-08T19:15:46.127Z,8.95
2019-06-08T19:18:14.831Z,9.90
2019-06-08T19:20:47.298Z,8.63
2019-06-08T19:23:20.693Z,8.03
2019-06-08T19:25:49.362Z,9.20
2019-06-08T19:28:34.885Z,9.47
2019-06-08T19:30:51.648Z,8.63
2019-06-08T19:33:21.967Z,8.37
2019-06-08T19:35:53.878Z,8.87
2019-06-08T19:38:23.148Z,8.33
2019-06-08T19:40:52.939Z,9.30
2019-06-08T19:43:22.793Z,8.77
2019-06-08T19:45:52.619Z,8.60
2019-06-08T19:48:22.367Z,9.07
2019-06-08T19:50:54.164Z,8.90
2019-06-08T19:53:23.671Z,8.33
2019-06-08T19:55:54.195Z,8.73
2019-06-08T19:58:24.311Z,9.08
2019-06-08T20:00:54.933Z,8.53
2019-06-08T20:03:27.377Z,8.30
2019-06-08T20:05:56.174Z,8.40
2019-06-08T20:08:28.333Z,8.53
2019-06-08T20:10:57.515Z,7.67
2019-06-08T20:13:27.690Z,8.10
2019-06-08T20:16:01.493Z,7.30
2019-06-08T20:18:28.782Z,6.73
2019-06-08T20:20:58.812Z,6.97
2019-06-08T20:23:28.960Z,6.50
2019-06-08T20:26:00.679Z,5.90
2019-06-08T20:28:30.711Z,5.73
2019-06-08T20:31:01.200Z,4.60
2019-06-08T20:33:31.128Z,5.00
2019-06-08T20:36:00.926Z,4.37
2019-06-08T20:38:37.266Z,4.20
2019-06-08T20:41:03.387Z,3.70
2019-06-08T20:43:33.272Z,3.70
2019-06-08T20:46:03.129Z,4.13
2019-06-08T20:48:32.931Z,2.93
2019-06-08T20:51:02.686Z,2.95
2019-06-08T20:53:32.408Z,2.83
2019-06-08T20:56:02.147Z,3.20
2019-06-08T20:58:31.938Z,2.60
2019-06-08T21:01:01.767Z,2.95
2019-06-08T21:03:32.730Z,3.10
2019-06-08T21:06:02.552Z,2.80
2019-06-08T21:08:32.347Z,2.97
2019-06-08T21:11:02.216Z,2.40
2019-06-08T21:13:31.956Z,2.60
2019-06-08T21:16:01.695Z,2.90
2019-06-08T21:18:31.448Z,2.70
2019-06-08T21:21:01.291Z,2.63
2019-06-08T21:23:32.099Z,2.80
2019-06-08T21:26:02.305Z,2.67
2019-06-08T21:28:32.197Z,2.50
2019-06-08T21:31:08.347Z,3.10
2019-06-08T21:33:37.954Z,2.67
2019-06-08T21:36:09.300Z,2.87
2019-06-08T21:38:41.056Z,2.70
2019-06-08T21:41:11.354Z,3.07
2019-06-08T21:43:41.409Z,2.33
2019-06-08T21:46:11.099Z,2.80
2019-06-08T21:48:41.035Z,2.80
2019-06-08T21:51:10.966Z,2.73
2019-06-08T21:53:40.721Z,2.60
2019-06-08T21:56:10.370Z,2.63
2019-06-08T21:58:40.131Z,2.80
2019-06-08T22:01:10.551Z,3.17
2019-06-08T22:03:40.309Z,2.33
2019-06-08T22:06:10.054Z,2.90
2019-06-08T22:08:39.742Z,2.70
2019-06-08T22:11:09.506Z,2.53
2019-06-08T22:13:39.260Z,2.87
2019-06-08T22:16:11.494Z,2.67
2019-06-08T22:18:41.543Z,3.07
2019-06-08T22:21:11.277Z,2.50
2019-06-08T22:23:40.972Z,2.60
2019-06-08T22:26:10.779Z,2.63
2019-06-08T22:28:40.568Z,2.60
2019-06-08T22:31:10.348Z,2.80
2019-06-08T22:33:40.022Z,2.80
2019-06-08T22:36:09.744Z,2.87
2019-06-08T22:38:39.531Z,2.70
2019-06-08T22:41:09.416Z,2.40
2019-06-08T22:43:39.219Z,3.30
2019-06-08T22:46:09.560Z,2.90
2019-06-08T22:48:39.247Z,2.77
2019-06-08T22:51:09.016Z,2.93
2019-06-08T22:53:38.788Z,2.23
2019-06-08T22:56:08.556Z,2.63
2019-06-08T22:58:38.536Z,2.20
2019-06-08T23:01:11.410Z,2.77
2019-06-08T23:03:39.658Z,2.53
2019-06-08T23:06:09.413Z,2.80
2019-06-08T23:08:39.145Z,2.57
2019-06-08T23:11:08.883Z,2.50
2019-06-08T23:13:38.593Z,2.30
2019-06-08T23:16:09.000Z,2.60
2019-06-08T23:18:38.878Z,2.53
2019-06-08T23:21:09.413Z,2.57
2019-06-08T23:23:39.107Z,2.87
2019-06-08T23:26:10.391Z,2.43
2019-06-08T23:28:40.199Z,2.97
2019-06-08T23:31:21.370Z,3.47
2019-06-08T23:33:41.187Z,3.47
2019-06-08T23:38:42.216Z,3.43
2019-06-08T23:41:11.935Z,3.07
2019-06-08T23:43:41.599Z,3.50
2019-06-08T23:46:11.310Z,3.73
2019-06-08T23:48:41.040Z,3.53
2019-06-08T23:51:11.049Z,3.63
2019-06-08T23:53:41.033Z,3.30
2019-06-08T23:56:11.863Z,3.80
2019-06-08T23:58:41.910Z,3.77
